sensor_id;sensor_type;location;lat;lon;timestamp;temperature;humidity
20125;DHT22;10223;50.862;4.360;2022-10-23T00:00:38;17.60;99.90
20125;DHT22;10223;50.862;4.360;2022-10-23T00:03:05;17.60;99.90
20125;DHT22;10223;50.862;4.360;2022-10-23T00:05:32;17.60;99.90
20125;DHT22;10223;50.862;4.360;2022-10-23T00:07:59;17.60;99.90
20125;DHT22;10223;50.862;4.360;2022-10-23T00:10:27;17.60;99.90
20125;DHT22;10223;50.862;4.360;2022-10-23T00:12:54;17.70;99.90
20125;DHT22;10223;50.862;4.360;2022-10-23T00:15:22;17.60;99.90
20125;DHT22;10223;50.862;4.360;2022-10-23T00:17:50;17.70;99.90
20125;DHT22;10223;50.862;4.360;2022-10-23T00:20:17;17.70;99.90
20125;DHT22;10223;50.862;4.360;2022-10-23T00:22:44;17.90;99.90
20125;DHT22;10223;50.862;4.360;2022-10-23T00:25:11;17.90;99.90
20125;DHT22;10223;50.862;4.360;2022-10-23T00:27:39;17.90;99.90
20125;DHT22;10223;50.862;4.360;2022-10-23T00:30:07;18.10;99.90
20125;DHT22;10223;50.862;4.360;2022-10-23T00:32:34;18.10;99.90
20125;DHT22;10223;50.862;4.360;2022-10-23T00:35:00;17.90;99.90
20125;DHT22;10223;50.862;4.360;2022-10-23T00:37:27;17.80;99.90
20125;DHT22;10223;50.862;4.360;2022-10-23T00:39:54;18.00;99.90
20125;DHT22;10223;50.862;4.360;2022-10-23T00:42:21;18.00;99.90
20125;DHT22;10223;50.862;4.360;2022-10-23T00:45:11;18.00;99.90
20125;DHT22;10223;50.862;4.360;2022-10-23T00:47:38;17.60;99.90
20125;DHT22;10223;50.862;4.360;2022-10-23T00:50:07;17.60;99.90
20125;DHT22;10223;50.862;4.360;2022-10-23T00:52:36;17.30;99.90
20125;DHT22;10223;50.862;4.360;2022-10-23T00:55:06;17.20;99.90
20125;DHT22;10223;50.862;4.360;2022-10-23T00:57:33;17.00;99.90
20125;DHT22;10223;50.862;4.360;2022-10-23T01:00:00;16.80;99.90
20125;DHT22;10223;50.862;4.360;2022-10-23T01:02:28;16.70;99.90
20125;DHT22;10223;50.862;4.360;2022-10-23T01:04:55;16.60;99.90
20125;DHT22;10223;50.862;4.360;2022-10-23T01:07:28;16.70;99.90
20125;DHT22;10223;50.862;4.360;2022-10-23T01:10:03;16.60;99.90
20125;DHT22;10223;50.862;4.360;2022-10-23T01:12:36;16.60;99.90
20125;DHT22;10223;50.862;4.360;2022-10-23T01:15:08;16.70;99.90
20125;DHT22;10223;50.862;4.360;2022-10-23T01:17:42;16.60;99.90
20125;DHT22;10223;50.862;4.360;2022-10-23T01:20:22;16.70;99.90
20125;DHT22;10223;50.862;4.360;2022-10-23T01:23:10;16.70;99.90
20125;DHT22;10223;50.862;4.360;2022-10-23T01:25:52;16.80;99.90
20125;DHT22;10223;50.862;4.360;2022-10-23T01:28:27;16.80;99.90
20125;DHT22;10223;50.862;4.360;2022-10-23T01:30:57;16.80;99.90
20125;DHT22;10223;50.862;4.360;2022-10-23T01:33:28;16.80;99.90
20125;DHT22;10223;50.862;4.360;2022-10-23T01:36:00;16.90;99.90
20125;DHT22;10223;50.862;4.360;2022-10-23T01:38:34;16.90;99.90
20125;DHT22;10223;50.862;4.360;2022-10-23T01:41:09;16.90;99.90
20125;DHT22;10223;50.862;4.360;2022-10-23T01:43:41;17.10;99.90
20125;DHT22;10223;50.862;4.360;2022-10-23T01:46:12;17.00;99.90
20125;DHT22;10223;50.862;4.360;2022-10-23T01:48:43;16.90;99.90
20125;DHT22;10223;50.862;4.360;2022-10-23T01:51:12;16.80;99.90
20125;DHT22;10223;50.862;4.360;2022-10-23T01:53:42;16.80;99.90
20125;DHT22;10223;50.862;4.360;2022-10-23T01:56:11;16.70;99.90
20125;DHT22;10223;50.862;4.360;2022-10-23T01:58:42;16.70;99.90
20125;DHT22;10223;50.862;4.360;2022-10-23T02:01:10;16.80;99.90
20125;DHT22;10223;50.862;4.360;2022-10-23T02:03:38;16.80;99.90
20125;DHT22;10223;50.862;4.360;2022-10-23T02:06:06;16.80;99.90
20125;DHT22;10223;50.862;4.360;2022-10-23T02:08:34;16.70;99.90
20125;DHT22;10223;50.862;4.360;2022-10-23T02:11:06;16.70;99.90
20125;DHT22;10223;50.862;4.360;2022-10-23T02:13:38;16.50;99.90
20125;DHT22;10223;50.862;4.360;2022-10-23T02:16:15;16.50;99.90
20125;DHT22;10223;50.862;4.360;2022-10-23T02:18:51;16.40;99.90
20125;DHT22;10223;50.862;4.360;2022-10-23T02:21:27;16.40;99.90
20125;DHT22;10223;50.862;4.360;2022-10-23T02:24:00;16.50;99.90
20125;DHT22;10223;50.862;4.360;2022-10-23T02:26:32;16.50;99.90
20125;DHT22;10223;50.862;4.360;2022-10-23T02:29:04;16.40;99.90
20125;DHT22;10223;50.862;4.360;2022-10-23T02:31:34;16.50;99.90
20125;DHT22;10223;50.862;4.360;2022-10-23T02:34:02;16.70;99.90
20125;DHT22;10223;50.862;4.360;2022-10-23T02:36:29;16.80;99.90
20125;DHT22;10223;50.862;4.360;2022-10-23T02:38:56;16.60;99.90
20125;DHT22;10223;50.862;4.360;2022-10-23T02:41:41;16.50;99.90
20125;DHT22;10223;50.862;4.360;2022-10-23T02:44:31;16.70;99.90
20125;DHT22;10223;50.862;4.360;2022-10-23T02:47:12;16.60;99.90
20125;DHT22;10223;50.862;4.360;2022-10-23T02:49:43;16.50;99.90
20125;DHT22;10223;50.862;4.360;2022-10-23T02:52:16;16.60;99.90
20125;DHT22;10223;50.862;4.360;2022-10-23T02:55:02;16.60;99.90
20125;DHT22;10223;50.862;4.360;2022-10-23T02:57:32;16.60;99.90
20125;DHT22;10223;50.862;4.360;2022-10-23T03:00:05;16.60;99.90
20125;DHT22;10223;50.862;4.360;2022-10-23T03:02:38;16.60;99.90
20125;DHT22;10223;50.862;4.360;2022-10-23T03:05:08;16.70;99.90
20125;DHT22;10223;50.862;4.360;2022-10-23T03:07:37;16.60;99.90
20125;DHT22;10223;50.862;4.360;2022-10-23T03:10:06;16.70;99.90
20125;DHT22;10223;50.862;4.360;2022-10-23T03:12:33;16.70;99.90
20125;DHT22;10223;50.862;4.360;2022-10-23T03:15:03;16.60;99.90
20125;DHT22;10223;50.862;4.360;2022-10-23T03:17:30;16.50;99.90
20125;DHT22;10223;50.862;4.360;2022-10-23T03:19:59;16.50;99.90
20125;DHT22;10223;50.862;4.360;2022-10-23T03:22:27;16.40;99.90
20125;DHT22;10223;50.862;4.360;2022-10-23T03:24:54;16.40;99.90
20125;DHT22;10223;50.862;4.360;2022-10-23T03:27:21;16.30;99.90
20125;DHT22;10223;50.862;4.360;2022-10-23T03:29:48;16.30;99.90
20125;DHT22;10223;50.862;4.360;2022-10-23T03:32:15;16.30;99.90
20125;DHT22;10223;50.862;4.360;2022-10-23T03:34:42;16.30;99.90
20125;DHT22;10223;50.862;4.360;2022-10-23T03:37:10;16.20;99.90
20125;DHT22;10223;50.862;4.360;2022-10-23T03:39:37;16.30;99.90
20125;DHT22;10223;50.862;4.360;2022-10-23T03:42:04;16.20;99.90
20125;DHT22;10223;50.862;4.360;2022-10-23T03:44:31;16.20;99.90
20125;DHT22;10223;50.862;4.360;2022-10-23T03:46:58;16.20;99.90
20125;DHT22;10223;50.862;4.360;2022-10-23T03:49:25;16.20;99.90
20125;DHT22;10223;50.862;4.360;2022-10-23T03:51:52;16.30;99.90
20125;DHT22;10223;50.862;4.360;2022-10-23T03:54:22;16.20;99.90
20125;DHT22;10223;50.862;4.360;2022-10-23T03:56:50;16.20;99.90
20125;DHT22;10223;50.862;4.360;2022-10-23T03:59:17;16.30;99.90
20125;DHT22;10223;50.862;4.360;2022-10-23T04:01:45;16.40;99.90
20125;DHT22;10223;50.862;4.360;2022-10-23T04:04:12;16.40;99.90
20125;DHT22;10223;50.862;4.360;2022-10-23T04:06:39;16.40;99.90
20125;DHT22;10223;50.862;4.360;2022-10-23T04:09:06;16.30;99.90
20125;DHT22;10223;50.862;4.360;2022-10-23T04:11:35;16.30;99.90
20125;DHT22;10223;50.862;4.360;2022-10-23T04:14:02;16.20;99.90
20125;DHT22;10223;50.862;4.360;2022-10-23T04:16:28;16.20;99.90
20125;DHT22;10223;50.862;4.360;2022-10-23T04:18:55;16.20;99.90
20125;DHT22;10223;50.862;4.360;2022-10-23T04:21:24;16.10;99.90
20125;DHT22;10223;50.862;4.360;2022-10-23T04:23:51;16.20;99.90
20125;DHT22;10223;50.862;4.360;2022-10-23T04:26:18;16.20;99.90
20125;DHT22;10223;50.862;4.360;2022-10-23T04:28:46;16.20;99.90
20125;DHT22;10223;50.862;4.360;2022-10-23T04:31:13;16.20;99.90
20125;DHT22;10223;50.862;4.360;2022-10-23T04:33:40;16.20;99.90
20125;DHT22;10223;50.862;4.360;2022-10-23T04:36:07;16.10;99.90
20125;DHT22;10223;50.862;4.360;2022-10-23T04:38:34;16.10;99.90
20125;DHT22;10223;50.862;4.360;2022-10-23T04:41:01;16.20;99.90
20125;DHT22;10223;50.862;4.360;2022-10-23T04:43:28;16.10;99.90
20125;DHT22;10223;50.862;4.360;2022-10-23T04:45:56;16.10;99.90
20125;DHT22;10223;50.862;4.360;2022-10-23T04:48:23;16.10;99.90
20125;DHT22;10223;50.862;4.360;2022-10-23T04:50:54;16.10;99.90
20125;DHT22;10223;50.862;4.360;2022-10-23T04:53:22;16.10;99.90
20125;DHT22;10223;50.862;4.360;2022-10-23T04:55:49;16.20;99.90
20125;DHT22;10223;50.862;4.360;2022-10-23T04:58:16;16.20;99.90
20125;DHT22;10223;50.862;4.360;2022-10-23T05:00:43;16.20;99.90
20125;DHT22;10223;50.862;4.360;2022-10-23T05:03:12;16.20;99.90
20125;DHT22;10223;50.862;4.360;2022-10-23T05:05:39;16.20;99.90
20125;DHT22;10223;50.862;4.360;2022-10-23T05:08:06;16.20;99.90
20125;DHT22;10223;50.862;4.360;2022-10-23T05:10:33;16.20;99.90
20125;DHT22;10223;50.862;4.360;2022-10-23T05:13:00;16.20;99.90
20125;DHT22;10223;50.862;4.360;2022-10-23T05:15:27;16.30;99.90
20125;DHT22;10223;50.862;4.360;2022-10-23T05:17:56;16.30;99.90
20125;DHT22;10223;50.862;4.360;2022-10-23T05:20:28;16.40;99.90
20125;DHT22;10223;50.862;4.360;2022-10-23T05:22:58;16.40;99.90
20125;DHT22;10223;50.862;4.360;2022-10-23T05:25:26;16.40;99.90
20125;DHT22;10223;50.862;4.360;2022-10-23T05:27:53;16.50;99.90
20125;DHT22;10223;50.862;4.360;2022-10-23T05:30:20;16.40;99.90
20125;DHT22;10223;50.862;4.360;2022-10-23T05:32:47;16.40;99.90
20125;DHT22;10223;50.862;4.360;2022-10-23T05:35:17;16.30;99.90
20125;DHT22;10223;50.862;4.360;2022-10-23T05:37:47;16.50;99.90
20125;DHT22;10223;50.862;4.360;2022-10-23T05:40:15;16.40;99.90
20125;DHT22;10223;50.862;4.360;2022-10-23T05:42:42;16.50;99.90
20125;DHT22;10223;50.862;4.360;2022-10-23T05:45:10;16.60;99.90
20125;DHT22;10223;50.862;4.360;2022-10-23T05:47:36;16.60;99.90
20125;DHT22;10223;50.862;4.360;2022-10-23T05:50:04;16.50;99.90
20125;DHT22;10223;50.862;4.360;2022-10-23T05:52:31;16.50;99.90
20125;DHT22;10223;50.862;4.360;2022-10-23T05:54:59;16.40;99.90
20125;DHT22;10223;50.862;4.360;2022-10-23T05:57:26;16.40;99.90
20125;DHT22;10223;50.862;4.360;2022-10-23T05:59:53;16.40;99.90
20125;DHT22;10223;50.862;4.360;2022-10-23T06:02:20;16.40;99.90
20125;DHT22;10223;50.862;4.360;2022-10-23T06:04:47;16.40;99.90
20125;DHT22;10223;50.862;4.360;2022-10-23T06:07:14;16.30;99.90
20125;DHT22;10223;50.862;4.360;2022-10-23T06:09:41;16.30;99.90
20125;DHT22;10223;50.862;4.360;2022-10-23T06:12:09;16.30;99.90
20125;DHT22;10223;50.862;4.360;2022-10-23T06:14:36;16.20;99.90
20125;DHT22;10223;50.862;4.360;2022-10-23T06:17:03;16.30;99.90
20125;DHT22;10223;50.862;4.360;2022-10-23T06:19:30;16.30;99.90
20125;DHT22;10223;50.862;4.360;2022-10-23T06:21:57;16.20;99.90
20125;DHT22;10223;50.862;4.360;2022-10-23T06:24:24;16.30;99.90
20125;DHT22;10223;50.862;4.360;2022-10-23T06:26:51;16.30;99.90
20125;DHT22;10223;50.862;4.360;2022-10-23T06:29:20;16.30;99.90
20125;DHT22;10223;50.862;4.360;2022-10-23T06:31:47;16.30;99.90
20125;DHT22;10223;50.862;4.360;2022-10-23T06:34:14;16.20;99.90
20125;DHT22;10223;50.862;4.360;2022-10-23T06:36:41;16.20;99.90
20125;DHT22;10223;50.862;4.360;2022-10-23T06:39:08;16.30;99.90
20125;DHT22;10223;50.862;4.360;2022-10-23T06:41:37;16.30;99.90
20125;DHT22;10223;50.862;4.360;2022-10-23T06:44:06;16.30;99.90
20125;DHT22;10223;50.862;4.360;2022-10-23T06:46:36;16.20;99.90
20125;DHT22;10223;50.862;4.360;2022-10-23T06:49:03;16.20;99.90
20125;DHT22;10223;50.862;4.360;2022-10-23T06:51:30;16.30;99.90
20125;DHT22;10223;50.862;4.360;2022-10-23T06:53:57;16.30;99.90
20125;DHT22;10223;50.862;4.360;2022-10-23T06:56:23;16.30;99.90
20125;DHT22;10223;50.862;4.360;2022-10-23T06:58:53;16.40;99.90
20125;DHT22;10223;50.862;4.360;2022-10-23T07:01:24;16.40;99.90
20125;DHT22;10223;50.862;4.360;2022-10-23T07:03:52;16.50;99.90
20125;DHT22;10223;50.862;4.360;2022-10-23T07:06:19;16.50;99.90
20125;DHT22;10223;50.862;4.360;2022-10-23T07:08:46;16.50;99.90
20125;DHT22;10223;50.862;4.360;2022-10-23T07:11:13;16.60;99.90
20125;DHT22;10223;50.862;4.360;2022-10-23T07:13:40;16.60;99.90
20125;DHT22;10223;50.862;4.360;2022-10-23T07:16:11;16.60;99.90
20125;DHT22;10223;50.862;4.360;2022-10-23T07:18:38;16.70;99.90
20125;DHT22;10223;50.862;4.360;2022-10-23T07:21:08;16.70;99.90
20125;DHT22;10223;50.862;4.360;2022-10-23T07:23:35;16.80;99.90
20125;DHT22;10223;50.862;4.360;2022-10-23T07:26:06;16.80;99.90
20125;DHT22;10223;50.862;4.360;2022-10-23T07:28:33;16.80;99.90
20125;DHT22;10223;50.862;4.360;2022-10-23T07:31:01;16.80;99.90
20125;DHT22;10223;50.862;4.360;2022-10-23T07:33:28;16.80;99.90
20125;DHT22;10223;50.862;4.360;2022-10-23T07:35:55;16.80;99.90
20125;DHT22;10223;50.862;4.360;2022-10-23T07:38:23;16.80;99.90
20125;DHT22;10223;50.862;4.360;2022-10-23T07:40:51;16.70;99.90
20125;DHT22;10223;50.862;4.360;2022-10-23T07:43:19;16.70;99.90
20125;DHT22;10223;50.862;4.360;2022-10-23T07:45:47;16.70;99.90
20125;DHT22;10223;50.862;4.360;2022-10-23T07:48:15;16.70;99.90
20125;DHT22;10223;50.862;4.360;2022-10-23T07:50:43;16.70;99.90
20125;DHT22;10223;50.862;4.360;2022-10-23T07:53:15;16.60;99.90
20125;DHT22;10223;50.862;4.360;2022-10-23T07:55:50;16.70;99.90
20125;DHT22;10223;50.862;4.360;2022-10-23T07:58:18;16.60;99.90
20125;DHT22;10223;50.862;4.360;2022-10-23T08:00:47;16.70;99.90
20125;DHT22;10223;50.862;4.360;2022-10-23T08:03:18;16.60;99.90
20125;DHT22;10223;50.862;4.360;2022-10-23T08:05:45;16.60;99.90
20125;DHT22;10223;50.862;4.360;2022-10-23T08:08:13;16.60;99.90
20125;DHT22;10223;50.862;4.360;2022-10-23T08:10:40;16.70;99.90
20125;DHT22;10223;50.862;4.360;2022-10-23T08:13:11;16.70;99.90
20125;DHT22;10223;50.862;4.360;2022-10-23T08:15:39;16.60;99.90
20125;DHT22;10223;50.862;4.360;2022-10-23T08:18:06;16.70;99.90
20125;DHT22;10223;50.862;4.360;2022-10-23T08:20:37;16.70;99.90
20125;DHT22;10223;50.862;4.360;2022-10-23T08:23:04;16.60;99.90
20125;DHT22;10223;50.862;4.360;2022-10-23T08:25:31;16.70;99.90
20125;DHT22;10223;50.862;4.360;2022-10-23T08:27:58;16.70;99.90
20125;DHT22;10223;50.862;4.360;2022-10-23T08:30:27;16.60;99.90
20125;DHT22;10223;50.862;4.360;2022-10-23T08:32:56;16.70;99.90
20125;DHT22;10223;50.862;4.360;2022-10-23T08:35:23;16.60;99.90
20125;DHT22;10223;50.862;4.360;2022-10-23T08:37:53;16.70;99.90
20125;DHT22;10223;50.862;4.360;2022-10-23T08:40:23;16.70;99.90
20125;DHT22;10223;50.862;4.360;2022-10-23T08:42:55;16.60;99.90
20125;DHT22;10223;50.862;4.360;2022-10-23T08:45:29;16.70;99.90
20125;DHT22;10223;50.862;4.360;2022-10-23T08:48:05;16.60;99.90
20125;DHT22;10223;50.862;4.360;2022-10-23T08:50:40;16.60;99.90
20125;DHT22;10223;50.862;4.360;2022-10-23T08:53:14;16.60;99.90
20125;DHT22;10223;50.862;4.360;2022-10-23T08:55:48;16.70;99.90
20125;DHT22;10223;50.862;4.360;2022-10-23T08:58:23;16.70;99.90
20125;DHT22;10223;50.862;4.360;2022-10-23T09:00:55;16.70;99.90
20125;DHT22;10223;50.862;4.360;2022-10-23T09:03:22;16.80;99.90
20125;DHT22;10223;50.862;4.360;2022-10-23T09:05:56;16.90;99.90
20125;DHT22;10223;50.862;4.360;2022-10-23T09:08:37;16.90;99.90
20125;DHT22;10223;50.862;4.360;2022-10-23T09:11:08;16.90;99.90
20125;DHT22;10223;50.862;4.360;2022-10-23T09:14:06;17.10;99.90
20125;DHT22;10223;50.862;4.360;2022-10-23T09:16:47;17.00;99.90
20125;DHT22;10223;50.862;4.360;2022-10-23T09:19:18;17.00;99.90
20125;DHT22;10223;50.862;4.360;2022-10-23T09:21:47;17.00;99.90
20125;DHT22;10223;50.862;4.360;2022-10-23T09:24:20;17.00;99.90
20125;DHT22;10223;50.862;4.360;2022-10-23T09:26:49;16.90;99.90
20125;DHT22;10223;50.862;4.360;2022-10-23T09:29:21;16.90;99.90
20125;DHT22;10223;50.862;4.360;2022-10-23T09:31:52;16.90;99.90
20125;DHT22;10223;50.862;4.360;2022-10-23T09:34:21;16.90;99.90
20125;DHT22;10223;50.862;4.360;2022-10-23T09:36:52;17.00;99.90
20125;DHT22;10223;50.862;4.360;2022-10-23T09:39:27;17.00;99.90
20125;DHT22;10223;50.862;4.360;2022-10-23T09:41:55;17.00;99.90
20125;DHT22;10223;50.862;4.360;2022-10-23T09:44:23;16.90;99.90
20125;DHT22;10223;50.862;4.360;2022-10-23T09:46:58;16.90;99.90
20125;DHT22;10223;50.862;4.360;2022-10-23T09:49:27;17.00;99.90
20125;DHT22;10223;50.862;4.360;2022-10-23T09:52:00;17.10;99.90
20125;DHT22;10223;50.862;4.360;2022-10-23T09:54:28;17.00;99.90
20125;DHT22;10223;50.862;4.360;2022-10-23T09:56:59;17.00;99.90
20125;DHT22;10223;50.862;4.360;2022-10-23T09:59:29;17.10;99.90
20125;DHT22;10223;50.862;4.360;2022-10-23T10:02:00;17.20;99.90
20125;DHT22;10223;50.862;4.360;2022-10-23T10:04:34;17.20;99.90
20125;DHT22;10223;50.862;4.360;2022-10-23T10:07:03;17.40;99.90
20125;DHT22;10223;50.862;4.360;2022-10-23T10:09:31;17.30;99.90
20125;DHT22;10223;50.862;4.360;2022-10-23T10:12:10;17.20;99.90
20125;DHT22;10223;50.862;4.360;2022-10-23T10:14:57;17.40;99.90
20125;DHT22;10223;50.862;4.360;2022-10-23T10:17:37;17.40;99.90
20125;DHT22;10223;50.862;4.360;2022-10-23T10:20:41;17.30;99.90
20125;DHT22;10223;50.862;4.360;2022-10-23T10:23:16;17.40;99.90
20125;DHT22;10223;50.862;4.360;2022-10-23T10:25:54;17.50;99.90
20125;DHT22;10223;50.862;4.360;2022-10-23T10:28:30;17.50;99.90
20125;DHT22;10223;50.862;4.360;2022-10-23T10:31:10;17.60;99.90
20125;DHT22;10223;50.862;4.360;2022-10-23T10:33:51;17.70;99.90
20125;DHT22;10223;50.862;4.360;2022-10-23T10:36:38;17.60;99.90
20125;DHT22;10223;50.862;4.360;2022-10-23T10:39:11;17.70;99.90
20125;DHT22;10223;50.862;4.360;2022-10-23T10:41:52;17.70;99.90
20125;DHT22;10223;50.862;4.360;2022-10-23T10:44:35;17.70;99.90
20125;DHT22;10223;50.862;4.360;2022-10-23T10:47:17;17.70;99.90
20125;DHT22;10223;50.862;4.360;2022-10-23T10:49:54;17.80;99.90
20125;DHT22;10223;50.862;4.360;2022-10-23T10:52:31;17.80;99.90
20125;DHT22;10223;50.862;4.360;2022-10-23T10:55:04;17.90;99.90
20125;DHT22;10223;50.862;4.360;2022-10-23T10:57:39;17.90;99.90
20125;DHT22;10223;50.862;4.360;2022-10-23T11:00:13;17.90;99.90
20125;DHT22;10223;50.862;4.360;2022-10-23T11:02:44;18.00;99.90
20125;DHT22;10223;50.862;4.360;2022-10-23T11:05:23;18.00;99.90
20125;DHT22;10223;50.862;4.360;2022-10-23T11:07:56;18.00;99.90
20125;DHT22;10223;50.862;4.360;2022-10-23T11:10:27;18.10;99.90
20125;DHT22;10223;50.862;4.360;2022-10-23T11:12:57;18.20;99.90
20125;DHT22;10223;50.862;4.360;2022-10-23T11:15:27;18.20;99.90
20125;DHT22;10223;50.862;4.360;2022-10-23T11:17:58;18.20;99.90
20125;DHT22;10223;50.862;4.360;2022-10-23T11:20:42;18.30;99.90
20125;DHT22;10223;50.862;4.360;2022-10-23T11:23:26;18.30;99.90
20125;DHT22;10223;50.862;4.360;2022-10-23T11:26:05;18.30;99.90
20125;DHT22;10223;50.862;4.360;2022-10-23T11:28:47;18.50;99.90
20125;DHT22;10223;50.862;4.360;2022-10-23T11:31:23;18.50;99.90
20125;DHT22;10223;50.862;4.360;2022-10-23T11:34:11;18.50;99.90
20125;DHT22;10223;50.862;4.360;2022-10-23T11:36:49;18.60;99.90
20125;DHT22;10223;50.862;4.360;2022-10-23T11:39:33;18.60;99.90
20125;DHT22;10223;50.862;4.360;2022-10-23T11:42:13;18.70;99.90
20125;DHT22;10223;50.862;4.360;2022-10-23T11:44:48;18.70;99.90
20125;DHT22;10223;50.862;4.360;2022-10-23T11:47:32;18.80;99.90
20125;DHT22;10223;50.862;4.360;2022-10-23T11:50:28;18.90;99.90
20125;DHT22;10223;50.862;4.360;2022-10-23T11:53:00;19.00;99.90
20125;DHT22;10223;50.862;4.360;2022-10-23T11:55:30;19.00;99.90
20125;DHT22;10223;50.862;4.360;2022-10-23T11:58:22;19.10;99.90
20125;DHT22;10223;50.862;4.360;2022-10-23T12:01:00;19.10;99.90
20125;DHT22;10223;50.862;4.360;2022-10-23T12:03:34;19.20;99.90
20125;DHT22;10223;50.862;4.360;2022-10-23T12:06:05;19.30;99.90
20125;DHT22;10223;50.862;4.360;2022-10-23T12:08:37;19.30;99.90
20125;DHT22;10223;50.862;4.360;2022-10-23T12:11:28;19.30;99.90
20125;DHT22;10223;50.862;4.360;2022-10-23T12:13:55;19.50;99.90
20125;DHT22;10223;50.862;4.360;2022-10-23T12:16:33;19.50;99.90
20125;DHT22;10223;50.862;4.360;2022-10-23T12:19:16;19.60;99.90
20125;DHT22;10223;50.862;4.360;2022-10-23T12:21:44;19.70;99.90
20125;DHT22;10223;50.862;4.360;2022-10-23T12:24:31;19.70;99.90
20125;DHT22;10223;50.862;4.360;2022-10-23T12:27:11;19.60;99.90
20125;DHT22;10223;50.862;4.360;2022-10-23T12:29:55;19.70;99.90
20125;DHT22;10223;50.862;4.360;2022-10-23T12:32:33;19.70;99.90
20125;DHT22;10223;50.862;4.360;2022-10-23T12:38:10;19.80;99.90
20125;DHT22;10223;50.862;4.360;2022-10-23T12:40:40;19.80;99.90
20125;DHT22;10223;50.862;4.360;2022-10-23T12:43:25;19.80;99.90
20125;DHT22;10223;50.862;4.360;2022-10-23T12:45:54;19.90;99.90
20125;DHT22;10223;50.862;4.360;2022-10-23T12:48:23;20.00;99.90
20125;DHT22;10223;50.862;4.360;2022-10-23T12:50:52;20.00;99.90
20125;DHT22;10223;50.862;4.360;2022-10-23T12:53:21;20.00;99.90
20125;DHT22;10223;50.862;4.360;2022-10-23T12:55:52;20.00;99.90
20125;DHT22;10223;50.862;4.360;2022-10-23T12:58:23;20.10;99.90
20125;DHT22;10223;50.862;4.360;2022-10-23T13:00:52;20.20;99.90
20125;DHT22;10223;50.862;4.360;2022-10-23T13:03:20;20.30;99.90
20125;DHT22;10223;50.862;4.360;2022-10-23T13:05:49;20.50;99.90
20125;DHT22;10223;50.862;4.360;2022-10-23T13:08:17;20.50;99.90
20125;DHT22;10223;50.862;4.360;2022-10-23T13:10:45;20.50;99.90
20125;DHT22;10223;50.862;4.360;2022-10-23T13:13:19;20.50;99.90
20125;DHT22;10223;50.862;4.360;2022-10-23T13:15:47;20.50;99.90
20125;DHT22;10223;50.862;4.360;2022-10-23T13:18:17;20.50;99.90
20125;DHT22;10223;50.862;4.360;2022-10-23T13:20:56;20.60;99.90
20125;DHT22;10223;50.862;4.360;2022-10-23T13:23:27;20.60;99.90
20125;DHT22;10223;50.862;4.360;2022-10-23T13:25:58;20.50;99.90
20125;DHT22;10223;50.862;4.360;2022-10-23T13:28:30;20.50;99.90
20125;DHT22;10223;50.862;4.360;2022-10-23T13:31:24;20.50;99.90
20125;DHT22;10223;50.862;4.360;2022-10-23T13:34:04;20.50;99.90
20125;DHT22;10223;50.862;4.360;2022-10-23T13:36:35;20.50;99.90
20125;DHT22;10223;50.862;4.360;2022-10-23T13:39:13;20.40;99.90
20125;DHT22;10223;50.862;4.360;2022-10-23T13:41:42;20.40;99.90
20125;DHT22;10223;50.862;4.360;2022-10-23T13:44:13;20.40;99.90
20125;DHT22;10223;50.862;4.360;2022-10-23T13:46:40;20.40;99.90
20125;DHT22;10223;50.862;4.360;2022-10-23T13:49:08;20.40;99.90
20125;DHT22;10223;50.862;4.360;2022-10-23T13:51:39;20.40;99.90
20125;DHT22;10223;50.862;4.360;2022-10-23T13:54:12;20.40;99.90
20125;DHT22;10223;50.862;4.360;2022-10-23T13:56:43;20.40;99.90
20125;DHT22;10223;50.862;4.360;2022-10-23T13:59:12;20.40;99.90
20125;DHT22;10223;50.862;4.360;2022-10-23T14:01:39;20.40;99.90
20125;DHT22;10223;50.862;4.360;2022-10-23T14:04:07;20.40;99.90
20125;DHT22;10223;50.862;4.360;2022-10-23T14:06:52;20.30;99.90
20125;DHT22;10223;50.862;4.360;2022-10-23T14:09:23;20.30;99.90
20125;DHT22;10223;50.862;4.360;2022-10-23T14:11:50;20.30;99.90
20125;DHT22;10223;50.862;4.360;2022-10-23T14:14:18;20.40;99.90
20125;DHT22;10223;50.862;4.360;2022-10-23T14:16:49;20.40;99.90
20125;DHT22;10223;50.862;4.360;2022-10-23T14:19:17;20.40;99.90
20125;DHT22;10223;50.862;4.360;2022-10-23T14:21:44;20.40;99.90
20125;DHT22;10223;50.862;4.360;2022-10-23T14:24:11;20.40;99.90
20125;DHT22;10223;50.862;4.360;2022-10-23T14:26:39;20.40;99.90
20125;DHT22;10223;50.862;4.360;2022-10-23T14:29:07;20.30;99.90
20125;DHT22;10223;50.862;4.360;2022-10-23T14:31:38;20.40;99.90
20125;DHT22;10223;50.862;4.360;2022-10-23T14:34:05;20.40;99.90
20125;DHT22;10223;50.862;4.360;2022-10-23T14:36:35;20.40;99.90
20125;DHT22;10223;50.862;4.360;2022-10-23T14:39:04;20.40;99.90
20125;DHT22;10223;50.862;4.360;2022-10-23T14:41:31;20.40;99.90
20125;DHT22;10223;50.862;4.360;2022-10-23T14:43:58;20.40;99.90
20125;DHT22;10223;50.862;4.360;2022-10-23T14:46:25;20.40;99.90
20125;DHT22;10223;50.862;4.360;2022-10-23T14:48:53;20.50;99.90
20125;DHT22;10223;50.862;4.360;2022-10-23T14:51:22;20.50;99.90
20125;DHT22;10223;50.862;4.360;2022-10-23T14:53:54;20.40;99.90
20125;DHT22;10223;50.862;4.360;2022-10-23T14:56:21;20.40;99.90
20125;DHT22;10223;50.862;4.360;2022-10-23T14:58:48;20.40;99.90
20125;DHT22;10223;50.862;4.360;2022-10-23T15:01:18;20.40;99.90
20125;DHT22;10223;50.862;4.360;2022-10-23T15:03:45;20.40;99.90
20125;DHT22;10223;50.862;4.360;2022-10-23T15:06:19;20.40;99.90
20125;DHT22;10223;50.862;4.360;2022-10-23T15:08:48;20.40;99.90
20125;DHT22;10223;50.862;4.360;2022-10-23T15:11:17;20.30;99.90
20125;DHT22;10223;50.862;4.360;2022-10-23T15:13:46;20.20;99.90
20125;DHT22;10223;50.862;4.360;2022-10-23T15:16:13;20.20;99.90
20125;DHT22;10223;50.862;4.360;2022-10-23T15:18:43;20.30;99.90
20125;DHT22;10223;50.862;4.360;2022-10-23T15:21:13;20.20;99.90
20125;DHT22;10223;50.862;4.360;2022-10-23T15:23:47;20.30;99.90
20125;DHT22;10223;50.862;4.360;2022-10-23T15:26:16;20.20;99.90
20125;DHT22;10223;50.862;4.360;2022-10-23T15:28:45;20.20;99.90
20125;DHT22;10223;50.862;4.360;2022-10-23T15:31:41;20.20;99.90
20125;DHT22;10223;50.862;4.360;2022-10-23T15:34:09;20.20;99.90
20125;DHT22;10223;50.862;4.360;2022-10-23T15:36:37;20.30;99.90
20125;DHT22;10223;50.862;4.360;2022-10-23T15:39:07;20.30;99.90
20125;DHT22;10223;50.862;4.360;2022-10-23T15:41:36;20.20;99.90
20125;DHT22;10223;50.862;4.360;2022-10-23T15:44:05;20.20;99.90
20125;DHT22;10223;50.862;4.360;2022-10-23T15:46:32;20.20;99.90
20125;DHT22;10223;50.862;4.360;2022-10-23T15:48:59;20.20;99.90
20125;DHT22;10223;50.862;4.360;2022-10-23T15:51:26;20.20;99.90
20125;DHT22;10223;50.862;4.360;2022-10-23T15:53:54;20.20;99.90
20125;DHT22;10223;50.862;4.360;2022-10-23T15:56:23;20.20;99.90